Angora, NE (69331)

5:33 PM MDT on August 31, 2016 (GMT -0600)
Bridgeport Ampride | | Change Station

Elev 3671 ft 41.67 °N, 103.10 °W | Updated 10 minutes ago

Scattered Clouds
Scattered Clouds
78.5 °F
Feels Like 80 °F
N
11.0
Wind Variable Wind from ESE
Gusts 13.0 mph

Today
High -- | Low -- °F
--% Chance of Precip.
Yesterday
High -- | Low -- °F
Precip. -- in
Pressure 30.08 in
Visibility 10.0 miles
Clouds Scattered Clouds 4600 ft
Heat Index 80 °F
Dew Point 60 °F
Humidity 54%
Rainfall 0.00 in
Snow Depth Not available.
6:17 AM 7:26 PM
Waning Crescent, 0% visible
METAR KAIA 312253Z AUTO 13014G20KT 10SM SCT046 27/13 A3020 RMK AO2 SLP184 T02670133
Pressure 30.08 in
Visibility 10.0 miles
Clouds Scattered Clouds 4600 ft
Heat Index 80 °F
Dew Point 60 °F
Humidity 54%
Rainfall 0.00 in
Snow Depth Not available.
6:17 AM 7:26 PM
Waning Crescent, 0% visible
METAR KAIA 312253Z AUTO 13014G20KT 10SM SCT046 27/13 A3020 RMK AO2 SLP184 T02670133

10-Day Weather Forecast

Almanac

Astronomy

Aug. 31, 2016 Rise Set
Actual Time
Civil Twilight
Nautical Twilight
Astronomical Twilight
Moon
Length of Visible Light
Length of Day
Tomorrow will be .
, % of the Moon is Illuminated

Today's Extremes

State Highs State Lows

Community

WunderPhotos

Upload Photos

1,936,215 photos uploaded!

WunderBlog® & News

Nearby

Air Quality

  Air Quality AQ Index Pollutant
Not available.

Snow Depth

Station Depth Elevation

Earthquake Activity

City Distance Mag. Time & Date
Minimum magnitude displayed is 2.5.

Coastal Water Temperatures

Place Temperature

Stations

Nearby Weather Stations

Station Location Temp. Windchill Dew Point Humidity Wind Precip. Elev Updated Type
                   

Watches & Warnings

There are currently no watches in effect.